Terminal Aerodrome Forecast
Issued by NWS

Home | Current Version | Previous Version | Text Only | Print | Product List | Glossary On
Versions: 1 2 3 4 5 6 7 8 9 10 11 12 13 14 15 16 17 18 19 20 21 22
000
FTUS46 KMTR 250531
TAFSFO
TAF
KSFO 250531Z 2506/2612 29012KT P6SM FEW009
      TEMPO 2511/2515 BKN009
     FM251500 26005KT P6SM OVC007
     FM251700 30008KT P6SM FEW010
     FM252100 29015G22KT P6SM FEW011
     FM260400 29015KT P6SM FEW010=

USA.gov is the U.S. government's official web portal to all federal, state and local government web resources and services.